sensor_id;sensor_type;location;lat;lon;timestamp;P1;durP1;ratioP1;P2;durP2;ratioP2
40122;SDS011;25832;45.490;4.912;2023-05-07T00:02:21;3.40;;;1.45;;
40122;SDS011;25832;45.490;4.912;2023-05-07T00:04:47;2.42;;;1.30;;
40122;SDS011;25832;45.490;4.912;2023-05-07T00:07:13;2.63;;;1.63;;
40122;SDS011;25832;45.490;4.912;2023-05-07T00:09:39;3.53;;;1.85;;
40122;SDS011;25832;45.490;4.912;2023-05-07T00:12:05;1.63;;;1.27;;
40122;SDS011;25832;45.490;4.912;2023-05-07T00:14:32;3.40;;;1.38;;
40122;SDS011;25832;45.490;4.912;2023-05-07T00:16:57;7.15;;;1.92;;
40122;SDS011;25832;45.490;4.912;2023-05-07T00:19:23;3.58;;;1.50;;
40122;SDS011;25832;45.490;4.912;2023-05-07T00:21:48;3.63;;;1.60;;
40122;SDS011;25832;45.490;4.912;2023-05-07T00:24:14;3.25;;;1.35;;
40122;SDS011;25832;45.490;4.912;2023-05-07T00:26:40;2.03;;;1.38;;
40122;SDS011;25832;45.490;4.912;2023-05-07T00:29:06;3.47;;;1.50;;
40122;SDS011;25832;45.490;4.912;2023-05-07T00:31:31;4.47;;;1.63;;
40122;SDS011;25832;45.490;4.912;2023-05-07T00:33:57;1.23;;;1.13;;
40122;SDS011;25832;45.490;4.912;2023-05-07T00:36:23;2.03;;;1.50;;
40122;SDS011;25832;45.490;4.912;2023-05-07T00:38:48;4.20;;;1.50;;
40122;SDS011;25832;45.490;4.912;2023-05-07T00:41:14;3.60;;;1.35;;
40122;SDS011;25832;45.490;4.912;2023-05-07T00:43:40;1.25;;;1.02;;
40122;SDS011;25832;45.490;4.912;2023-05-07T00:46:06;5.00;;;1.58;;
40122;SDS011;25832;45.490;4.912;2023-05-07T00:48:31;2.83;;;2.10;;
40122;SDS011;25832;45.490;4.912;2023-05-07T00:50:57;4.05;;;1.20;;
40122;SDS011;25832;45.490;4.912;2023-05-07T00:53:23;1.33;;;1.20;;
40122;SDS011;25832;45.490;4.912;2023-05-07T00:55:49;5.60;;;1.80;;
40122;SDS011;25832;45.490;4.912;2023-05-07T00:58:15;1.95;;;1.38;;
40122;SDS011;25832;45.490;4.912;2023-05-07T01:00:41;4.18;;;1.55;;
40122;SDS011;25832;45.490;4.912;2023-05-07T01:03:07;2.25;;;1.20;;
40122;SDS011;25832;45.490;4.912;2023-05-07T01:05:33;1.50;;;1.20;;
40122;SDS011;25832;45.490;4.912;2023-05-07T01:07:59;2.72;;;1.20;;
40122;SDS011;25832;45.490;4.912;2023-05-07T01:10:25;3.33;;;1.55;;
40122;SDS011;25832;45.490;4.912;2023-05-07T01:12:51;2.22;;;1.15;;
40122;SDS011;25832;45.490;4.912;2023-05-07T01:15:18;4.97;;;1.50;;
40122;SDS011;25832;45.490;4.912;2023-05-07T01:17:44;7.63;;;1.70;;
40122;SDS011;25832;45.490;4.912;2023-05-07T01:20:10;1.77;;;1.40;;
40122;SDS011;25832;45.490;4.912;2023-05-07T01:22:37;2.28;;;1.73;;
40122;SDS011;25832;45.490;4.912;2023-05-07T01:25:03;2.67;;;1.60;;
40122;SDS011;25832;45.490;4.912;2023-05-07T01:27:30;2.70;;;1.40;;
40122;SDS011;25832;45.490;4.912;2023-05-07T01:29:56;3.97;;;1.88;;
40122;SDS011;25832;45.490;4.912;2023-05-07T01:32:27;2.00;;;1.35;;
40122;SDS011;25832;45.490;4.912;2023-05-07T01:34:58;3.40;;;1.85;;
40122;SDS011;25832;45.490;4.912;2023-05-07T01:37:26;2.85;;;1.70;;
40122;SDS011;25832;45.490;4.912;2023-05-07T01:39:52;3.85;;;1.90;;
40122;SDS011;25832;45.490;4.912;2023-05-07T01:42:19;4.55;;;1.50;;
40122;SDS011;25832;45.490;4.912;2023-05-07T01:44:44;2.25;;;1.45;;
40122;SDS011;25832;45.490;4.912;2023-05-07T01:47:11;2.65;;;1.80;;
40122;SDS011;25832;45.490;4.912;2023-05-07T01:49:38;1.70;;;1.30;;
40122;SDS011;25832;45.490;4.912;2023-05-07T01:52:05;2.60;;;1.65;;
40122;SDS011;25832;45.490;4.912;2023-05-07T01:54:31;3.88;;;2.40;;
40122;SDS011;25832;45.490;4.912;2023-05-07T01:56:56;1.98;;;1.50;;
40122;SDS011;25832;45.490;4.912;2023-05-07T01:59:22;4.75;;;1.80;;
40122;SDS011;25832;45.490;4.912;2023-05-07T02:01:48;6.38;;;1.90;;
40122;SDS011;25832;45.490;4.912;2023-05-07T02:04:13;2.03;;;1.65;;
40122;SDS011;25832;45.490;4.912;2023-05-07T02:06:39;5.15;;;2.05;;
40122;SDS011;25832;45.490;4.912;2023-05-07T02:09:05;4.05;;;1.63;;
40122;SDS011;25832;45.490;4.912;2023-05-07T02:11:31;1.65;;;1.20;;
40122;SDS011;25832;45.490;4.912;2023-05-07T02:13:56;3.72;;;2.22;;
40122;SDS011;25832;45.490;4.912;2023-05-07T02:16:22;2.00;;;1.52;;
40122;SDS011;25832;45.490;4.912;2023-05-07T02:18:48;2.20;;;1.70;;
40122;SDS011;25832;45.490;4.912;2023-05-07T02:21:14;5.40;;;1.83;;
40122;SDS011;25832;45.490;4.912;2023-05-07T02:23:40;3.95;;;1.85;;
40122;SDS011;25832;45.490;4.912;2023-05-07T02:26:06;1.92;;;1.38;;
40122;SDS011;25832;45.490;4.912;2023-05-07T02:28:31;2.35;;;1.20;;
40122;SDS011;25832;45.490;4.912;2023-05-07T02:30:58;2.22;;;1.38;;
40122;SDS011;25832;45.490;4.912;2023-05-07T02:33:25;2.00;;;1.20;;
40122;SDS011;25832;45.490;4.912;2023-05-07T02:35:51;5.40;;;1.70;;
40122;SDS011;25832;45.490;4.912;2023-05-07T02:38:17;4.00;;;1.95;;
40122;SDS011;25832;45.490;4.912;2023-05-07T02:40:42;3.13;;;1.48;;
40122;SDS011;25832;45.490;4.912;2023-05-07T02:43:08;1.52;;;1.17;;
40122;SDS011;25832;45.490;4.912;2023-05-07T02:45:34;4.82;;;1.98;;
40122;SDS011;25832;45.490;4.912;2023-05-07T02:48:01;3.35;;;1.55;;
40122;SDS011;25832;45.490;4.912;2023-05-07T02:50:26;2.47;;;1.73;;
40122;SDS011;25832;45.490;4.912;2023-05-07T02:52:52;3.83;;;1.75;;
40122;SDS011;25832;45.490;4.912;2023-05-07T02:55:18;4.35;;;1.67;;
40122;SDS011;25832;45.490;4.912;2023-05-07T02:57:43;3.38;;;1.60;;
40122;SDS011;25832;45.490;4.912;2023-05-07T03:00:16;2.42;;;1.63;;
40122;SDS011;25832;45.490;4.912;2023-05-07T03:02:43;2.70;;;1.60;;
40122;SDS011;25832;45.490;4.912;2023-05-07T03:05:10;3.88;;;1.85;;
40122;SDS011;25832;45.490;4.912;2023-05-07T03:07:36;4.00;;;1.48;;
40122;SDS011;25832;45.490;4.912;2023-05-07T03:10:02;3.00;;;1.63;;
40122;SDS011;25832;45.490;4.912;2023-05-07T03:12:28;1.85;;;1.50;;
40122;SDS011;25832;45.490;4.912;2023-05-07T03:14:55;1.40;;;1.05;;
40122;SDS011;25832;45.490;4.912;2023-05-07T03:17:21;4.07;;;1.58;;
40122;SDS011;25832;45.490;4.912;2023-05-07T03:19:46;2.90;;;1.40;;
40122;SDS011;25832;45.490;4.912;2023-05-07T03:22:12;4.78;;;2.17;;
40122;SDS011;25832;45.490;4.912;2023-05-07T03:24:38;2.45;;;1.33;;
40122;SDS011;25832;45.490;4.912;2023-05-07T03:27:03;3.90;;;1.63;;
40122;SDS011;25832;45.490;4.912;2023-05-07T03:29:29;4.68;;;1.92;;
40122;SDS011;25832;45.490;4.912;2023-05-07T03:31:55;2.10;;;1.67;;
40122;SDS011;25832;45.490;4.912;2023-05-07T03:34:20;4.45;;;1.67;;
40122;SDS011;25832;45.490;4.912;2023-05-07T03:36:50;3.40;;;1.92;;
40122;SDS011;25832;45.490;4.912;2023-05-07T03:39:15;5.13;;;1.70;;
40122;SDS011;25832;45.490;4.912;2023-05-07T03:41:41;4.07;;;1.60;;
40122;SDS011;25832;45.490;4.912;2023-05-07T03:44:07;3.38;;;1.50;;
40122;SDS011;25832;45.490;4.912;2023-05-07T03:46:33;5.15;;;2.28;;
40122;SDS011;25832;45.490;4.912;2023-05-07T03:48:59;2.33;;;1.73;;
40122;SDS011;25832;45.490;4.912;2023-05-07T03:51:25;2.65;;;1.58;;
40122;SDS011;25832;45.490;4.912;2023-05-07T03:53:51;2.40;;;1.75;;
40122;SDS011;25832;45.490;4.912;2023-05-07T03:58:48;3.50;;;1.73;;
40122;SDS011;25832;45.490;4.912;2023-05-07T04:01:13;2.53;;;1.90;;
40122;SDS011;25832;45.490;4.912;2023-05-07T04:03:39;4.28;;;2.00;;
40122;SDS011;25832;45.490;4.912;2023-05-07T04:06:05;3.33;;;2.08;;
40122;SDS011;25832;45.490;4.912;2023-05-07T04:08:31;3.97;;;1.85;;
40122;SDS011;25832;45.490;4.912;2023-05-07T04:10:57;4.82;;;2.03;;
40122;SDS011;25832;45.490;4.912;2023-05-07T04:13:23;2.55;;;1.85;;
40122;SDS011;25832;45.490;4.912;2023-05-07T04:15:49;4.68;;;2.40;;
40122;SDS011;25832;45.490;4.912;2023-05-07T04:18:15;2.42;;;1.67;;
40122;SDS011;25832;45.490;4.912;2023-05-07T04:20:41;4.25;;;1.70;;
40122;SDS011;25832;45.490;4.912;2023-05-07T04:23:07;5.13;;;1.75;;
40122;SDS011;25832;45.490;4.912;2023-05-07T04:25:33;2.55;;;1.50;;
40122;SDS011;25832;45.490;4.912;2023-05-07T04:27:58;3.30;;;1.50;;
40122;SDS011;25832;45.490;4.912;2023-05-07T04:30:24;2.17;;;1.48;;
40122;SDS011;25832;45.490;4.912;2023-05-07T04:32:50;1.88;;;1.15;;
40122;SDS011;25832;45.490;4.912;2023-05-07T04:35:16;4.15;;;2.00;;
40122;SDS011;25832;45.490;4.912;2023-05-07T04:37:42;2.47;;;1.42;;
40122;SDS011;25832;45.490;4.912;2023-05-07T04:40:08;5.05;;;2.08;;
40122;SDS011;25832;45.490;4.912;2023-05-07T04:42:34;3.60;;;1.60;;
40122;SDS011;25832;45.490;4.912;2023-05-07T04:45:00;1.25;;;1.10;;
40122;SDS011;25832;45.490;4.912;2023-05-07T04:47:27;3.72;;;1.95;;
40122;SDS011;25832;45.490;4.912;2023-05-07T04:49:52;8.63;;;1.90;;
40122;SDS011;25832;45.490;4.912;2023-05-07T04:52:18;5.50;;;3.75;;
40122;SDS011;25832;45.490;4.912;2023-05-07T04:54:43;4.63;;;2.83;;
40122;SDS011;25832;45.490;4.912;2023-05-07T04:57:09;8.18;;;4.38;;
40122;SDS011;25832;45.490;4.912;2023-05-07T04:59:35;7.53;;;3.58;;
40122;SDS011;25832;45.490;4.912;2023-05-07T05:02:01;6.03;;;3.47;;
40122;SDS011;25832;45.490;4.912;2023-05-07T05:04:29;5.88;;;3.03;;
40122;SDS011;25832;45.490;4.912;2023-05-07T05:06:55;3.90;;;2.70;;
40122;SDS011;25832;45.490;4.912;2023-05-07T05:09:21;4.45;;;2.72;;
40122;SDS011;25832;45.490;4.912;2023-05-07T05:11:46;6.85;;;2.50;;
40122;SDS011;25832;45.490;4.912;2023-05-07T05:14:12;5.20;;;2.08;;
40122;SDS011;25832;45.490;4.912;2023-05-07T05:16:38;3.55;;;1.83;;
40122;SDS011;25832;45.490;4.912;2023-05-07T05:19:03;3.92;;;2.42;;
40122;SDS011;25832;45.490;4.912;2023-05-07T05:21:29;2.97;;;1.98;;
40122;SDS011;25832;45.490;4.912;2023-05-07T05:23:56;3.28;;;2.35;;
40122;SDS011;25832;45.490;4.912;2023-05-07T05:26:21;3.88;;;2.47;;
40122;SDS011;25832;45.490;4.912;2023-05-07T05:28:47;3.22;;;2.42;;
40122;SDS011;25832;45.490;4.912;2023-05-07T05:31:13;2.45;;;1.70;;
40122;SDS011;25832;45.490;4.912;2023-05-07T05:33:39;3.03;;;1.92;;
40122;SDS011;25832;45.490;4.912;2023-05-07T05:36:05;3.42;;;2.00;;
40122;SDS011;25832;45.490;4.912;2023-05-07T05:38:31;3.80;;;2.17;;
40122;SDS011;25832;45.490;4.912;2023-05-07T05:40:57;3.90;;;2.10;;
40122;SDS011;25832;45.490;4.912;2023-05-07T05:43:22;3.95;;;2.53;;
40122;SDS011;25832;45.490;4.912;2023-05-07T05:45:48;4.68;;;2.25;;
40122;SDS011;25832;45.490;4.912;2023-05-07T05:48:14;3.25;;;2.20;;
40122;SDS011;25832;45.490;4.912;2023-05-07T05:50:41;3.28;;;1.80;;
40122;SDS011;25832;45.490;4.912;2023-05-07T05:53:07;2.90;;;2.15;;
40122;SDS011;25832;45.490;4.912;2023-05-07T05:55:33;4.90;;;1.95;;
40122;SDS011;25832;45.490;4.912;2023-05-07T05:58:00;3.03;;;2.17;;
40122;SDS011;25832;45.490;4.912;2023-05-07T06:00:26;3.72;;;2.65;;
40122;SDS011;25832;45.490;4.912;2023-05-07T06:02:52;3.33;;;1.80;;
40122;SDS011;25832;45.490;4.912;2023-05-07T06:05:18;3.67;;;2.10;;
40122;SDS011;25832;45.490;4.912;2023-05-07T06:07:43;3.88;;;2.60;;
40122;SDS011;25832;45.490;4.912;2023-05-07T06:10:09;2.80;;;1.95;;
40122;SDS011;25832;45.490;4.912;2023-05-07T06:12:35;4.40;;;2.10;;
40122;SDS011;25832;45.490;4.912;2023-05-07T06:15:01;5.90;;;2.28;;
40122;SDS011;25832;45.490;4.912;2023-05-07T06:17:26;3.50;;;2.25;;
40122;SDS011;25832;45.490;4.912;2023-05-07T06:19:52;2.40;;;1.90;;
40122;SDS011;25832;45.490;4.912;2023-05-07T06:22:18;3.60;;;2.45;;
40122;SDS011;25832;45.490;4.912;2023-05-07T06:24:44;4.80;;;2.67;;
40122;SDS011;25832;45.490;4.912;2023-05-07T06:27:09;6.03;;;3.15;;
40122;SDS011;25832;45.490;4.912;2023-05-07T06:29:35;5.85;;;2.50;;
40122;SDS011;25832;45.490;4.912;2023-05-07T06:32:07;2.97;;;2.35;;
40122;SDS011;25832;45.490;4.912;2023-05-07T06:34:38;8.40;;;2.72;;
40122;SDS011;25832;45.490;4.912;2023-05-07T06:37:04;5.30;;;2.50;;
40122;SDS011;25832;45.490;4.912;2023-05-07T06:39:30;3.45;;;2.42;;
40122;SDS011;25832;45.490;4.912;2023-05-07T06:41:56;8.05;;;2.38;;
40122;SDS011;25832;45.490;4.912;2023-05-07T06:44:22;2.92;;;2.20;;
40122;SDS011;25832;45.490;4.912;2023-05-07T06:46:47;2.92;;;2.22;;
40122;SDS011;25832;45.490;4.912;2023-05-07T06:49:13;4.80;;;2.33;;
40122;SDS011;25832;45.490;4.912;2023-05-07T06:51:39;4.30;;;2.45;;
40122;SDS011;25832;45.490;4.912;2023-05-07T06:54:05;2.50;;;2.22;;
40122;SDS011;25832;45.490;4.912;2023-05-07T06:56:31;5.45;;;2.28;;
40122;SDS011;25832;45.490;4.912;2023-05-07T06:58:57;4.57;;;3.03;;
40122;SDS011;25832;45.490;4.912;2023-05-07T07:01:23;5.72;;;2.17;;
40122;SDS011;25832;45.490;4.912;2023-05-07T07:03:48;3.35;;;2.00;;
40122;SDS011;25832;45.490;4.912;2023-05-07T07:06:14;3.13;;;2.20;;
40122;SDS011;25832;45.490;4.912;2023-05-07T07:08:39;3.00;;;1.95;;
40122;SDS011;25832;45.490;4.912;2023-05-07T07:11:05;2.53;;;1.70;;
40122;SDS011;25832;45.490;4.912;2023-05-07T07:13:31;3.25;;;1.88;;
40122;SDS011;25832;45.490;4.912;2023-05-07T07:15:57;3.92;;;1.85;;
40122;SDS011;25832;45.490;4.912;2023-05-07T07:18:23;2.80;;;2.00;;
40122;SDS011;25832;45.490;4.912;2023-05-07T07:20:48;2.50;;;1.73;;
40122;SDS011;25832;45.490;4.912;2023-05-07T07:23:14;2.75;;;1.60;;
40122;SDS011;25832;45.490;4.912;2023-05-07T07:25:40;2.65;;;2.00;;
40122;SDS011;25832;45.490;4.912;2023-05-07T07:28:06;4.15;;;1.90;;
40122;SDS011;25832;45.490;4.912;2023-05-07T07:30:32;4.18;;;2.53;;
40122;SDS011;25832;45.490;4.912;2023-05-07T07:32:59;5.68;;;2.22;;
40122;SDS011;25832;45.490;4.912;2023-05-07T07:35:34;2.92;;;2.15;;
40122;SDS011;25832;45.490;4.912;2023-05-07T07:38:00;4.10;;;2.38;;
40122;SDS011;25832;45.490;4.912;2023-05-07T07:40:26;3.67;;;1.90;;
40122;SDS011;25832;45.490;4.912;2023-05-07T07:42:52;4.43;;;2.67;;
40122;SDS011;25832;45.490;4.912;2023-05-07T07:45:18;3.60;;;2.08;;
40122;SDS011;25832;45.490;4.912;2023-05-07T07:47:44;4.80;;;2.10;;
40122;SDS011;25832;45.490;4.912;2023-05-07T07:50:10;2.60;;;1.67;;
40122;SDS011;25832;45.490;4.912;2023-05-07T07:52:36;4.95;;;2.05;;
40122;SDS011;25832;45.490;4.912;2023-05-07T07:55:01;2.28;;;1.65;;
40122;SDS011;25832;45.490;4.912;2023-05-07T07:57:27;4.22;;;2.05;;
40122;SDS011;25832;45.490;4.912;2023-05-07T07:59:53;3.33;;;2.22;;
40122;SDS011;25832;45.490;4.912;2023-05-07T08:02:19;3.22;;;1.85;;
40122;SDS011;25832;45.490;4.912;2023-05-07T08:04:45;2.33;;;1.67;;
40122;SDS011;25832;45.490;4.912;2023-05-07T08:07:11;1.88;;;1.35;;
40122;SDS011;25832;45.490;4.912;2023-05-07T08:09:37;2.33;;;1.42;;
40122;SDS011;25832;45.490;4.912;2023-05-07T08:12:04;2.67;;;1.63;;
40122;SDS011;25832;45.490;4.912;2023-05-07T08:14:33;2.45;;;1.67;;
40122;SDS011;25832;45.490;4.912;2023-05-07T08:16:59;3.05;;;1.50;;
40122;SDS011;25832;45.490;4.912;2023-05-07T08:19:25;4.10;;;1.63;;
40122;SDS011;25832;45.490;4.912;2023-05-07T08:21:51;2.10;;;1.77;;
40122;SDS011;25832;45.490;4.912;2023-05-07T08:24:17;3.40;;;2.15;;
40122;SDS011;25832;45.490;4.912;2023-05-07T08:26:43;4.55;;;1.92;;
40122;SDS011;25832;45.490;4.912;2023-05-07T08:29:10;3.30;;;1.80;;
40122;SDS011;25832;45.490;4.912;2023-05-07T08:31:36;2.55;;;1.60;;
40122;SDS011;25832;45.490;4.912;2023-05-07T08:34:03;2.92;;;1.52;;
40122;SDS011;25832;45.490;4.912;2023-05-07T08:36:29;3.45;;;1.60;;
40122;SDS011;25832;45.490;4.912;2023-05-07T08:38:55;8.65;;;1.98;;
40122;SDS011;25832;45.490;4.912;2023-05-07T08:41:20;4.10;;;1.63;;
40122;SDS011;25832;45.490;4.912;2023-05-07T08:43:47;2.50;;;1.63;;
40122;SDS011;25832;45.490;4.912;2023-05-07T08:46:18;2.80;;;1.90;;
40122;SDS011;25832;45.490;4.912;2023-05-07T08:48:50;3.97;;;2.47;;
40122;SDS011;25832;45.490;4.912;2023-05-07T08:51:17;5.13;;;3.00;;
40122;SDS011;25832;45.490;4.912;2023-05-07T08:53:46;3.85;;;2.92;;
40122;SDS011;25832;45.490;4.912;2023-05-07T08:56:16;4.80;;;2.40;;
40122;SDS011;25832;45.490;4.912;2023-05-07T08:58:43;3.38;;;2.80;;
40122;SDS011;25832;45.490;4.912;2023-05-07T09:01:13;3.00;;;2.20;;
40122;SDS011;25832;45.490;4.912;2023-05-07T09:03:40;4.30;;;2.33;;
40122;SDS011;25832;45.490;4.912;2023-05-07T09:06:09;4.18;;;1.83;;
40122;SDS011;25832;45.490;4.912;2023-05-07T09:08:35;3.55;;;2.10;;
40122;SDS011;25832;45.490;4.912;2023-05-07T09:11:01;3.88;;;2.50;;
40122;SDS011;25832;45.490;4.912;2023-05-07T09:13:27;4.68;;;2.50;;
40122;SDS011;25832;45.490;4.912;2023-05-07T09:15:53;5.55;;;2.45;;
40122;SDS011;25832;45.490;4.912;2023-05-07T09:18:18;3.80;;;1.60;;
40122;SDS011;25832;45.490;4.912;2023-05-07T09:20:44;3.38;;;2.40;;
40122;SDS011;25832;45.490;4.912;2023-05-07T09:23:10;2.90;;;2.28;;
40122;SDS011;25832;45.490;4.912;2023-05-07T09:25:36;5.70;;;2.50;;
40122;SDS011;25832;45.490;4.912;2023-05-07T09:28:02;5.07;;;2.30;;
40122;SDS011;25832;45.490;4.912;2023-05-07T09:30:29;3.70;;;2.78;;
40122;SDS011;25832;45.490;4.912;2023-05-07T09:32:57;4.43;;;2.72;;
40122;SDS011;25832;45.490;4.912;2023-05-07T09:35:24;5.57;;;2.97;;
40122;SDS011;25832;45.490;4.912;2023-05-07T09:37:56;5.43;;;2.88;;
40122;SDS011;25832;45.490;4.912;2023-05-07T09:40:24;7.03;;;3.10;;
40122;SDS011;25832;45.490;4.912;2023-05-07T09:42:54;3.83;;;2.17;;
40122;SDS011;25832;45.490;4.912;2023-05-07T09:45:26;3.35;;;2.58;;
40122;SDS011;25832;45.490;4.912;2023-05-07T09:47:57;4.47;;;2.55;;
40122;SDS011;25832;45.490;4.912;2023-05-07T09:50:30;3.78;;;2.55;;
40122;SDS011;25832;45.490;4.912;2023-05-07T09:53:01;4.95;;;2.47;;
40122;SDS011;25832;45.490;4.912;2023-05-07T09:55:28;4.80;;;3.10;;
40122;SDS011;25832;45.490;4.912;2023-05-07T09:57:55;4.30;;;3.13;;
40122;SDS011;25832;45.490;4.912;2023-05-07T10:00:22;3.60;;;2.60;;
40122;SDS011;25832;45.490;4.912;2023-05-07T10:02:49;3.28;;;2.55;;
40122;SDS011;25832;45.490;4.912;2023-05-07T10:05:20;4.88;;;2.80;;
40122;SDS011;25832;45.490;4.912;2023-05-07T10:07:47;3.65;;;3.00;;
40122;SDS011;25832;45.490;4.912;2023-05-07T10:10:13;3.60;;;3.22;;
40122;SDS011;25832;45.490;4.912;2023-05-07T10:12:40;3.20;;;2.50;;
40122;SDS011;25832;45.490;4.912;2023-05-07T10:15:07;4.28;;;2.55;;
40122;SDS011;25832;45.490;4.912;2023-05-07T10:17:37;6.63;;;3.13;;
40122;SDS011;25832;45.490;4.912;2023-05-07T10:20:04;4.93;;;2.80;;
40122;SDS011;25832;45.490;4.912;2023-05-07T10:22:32;6.22;;;2.88;;
40122;SDS011;25832;45.490;4.912;2023-05-07T10:25:21;3.42;;;2.60;;
40122;SDS011;25832;45.490;4.912;2023-05-07T10:27:51;6.60;;;2.67;;
40122;SDS011;25832;45.490;4.912;2023-05-07T10:30:27;5.25;;;2.42;;
40122;SDS011;25832;45.490;4.912;2023-05-07T10:33:15;3.38;;;2.70;;
40122;SDS011;25832;45.490;4.912;2023-05-07T10:38:11;4.63;;;2.67;;
40122;SDS011;25832;45.490;4.912;2023-05-07T10:40:37;3.58;;;2.33;;
40122;SDS011;25832;45.490;4.912;2023-05-07T10:43:04;8.95;;;2.67;;
40122;SDS011;25832;45.490;4.912;2023-05-07T10:45:30;6.20;;;3.10;;
40122;SDS011;25832;45.490;4.912;2023-05-07T10:48:12;3.88;;;2.60;;
40122;SDS011;25832;45.490;4.912;2023-05-07T10:50:39;3.42;;;2.40;;
40122;SDS011;25832;45.490;4.912;2023-05-07T10:56:29;3.78;;;2.75;;
40122;SDS011;25832;45.490;4.912;2023-05-07T10:58:41;6.15;;;3.55;;
40122;SDS011;25832;45.490;4.912;2023-05-07T11:01:07;7.30;;;3.67;;
40122;SDS011;25832;45.490;4.912;2023-05-07T11:03:33;10.20;;;3.85;;
40122;SDS011;25832;45.490;4.912;2023-05-07T11:06:14;5.95;;;5.32;;
40122;SDS011;25832;45.490;4.912;2023-05-07T11:08:56;8.40;;;5.22;;
40122;SDS011;25832;45.490;4.912;2023-05-07T11:17:08;7.47;;;5.63;;
40122;SDS011;25832;45.490;4.912;2023-05-07T11:19:53;9.32;;;6.78;;
40122;SDS011;25832;45.490;4.912;2023-05-07T11:25:02;12.35;;;8.40;;
40122;SDS011;25832;45.490;4.912;2023-05-07T11:27:28;11.68;;;8.57;;
40122;SDS011;25832;45.490;4.912;2023-05-07T11:29:55;9.07;;;7.85;;
40122;SDS011;25832;45.490;4.912;2023-05-07T11:32:28;14.27;;;7.85;;
40122;SDS011;25832;45.490;4.912;2023-05-07T11:34:55;12.52;;;9.23;;
40122;SDS011;25832;45.490;4.912;2023-05-07T11:37:22;14.30;;;9.27;;
40122;SDS011;25832;45.490;4.912;2023-05-07T11:39:48;13.80;;;9.20;;
40122;SDS011;25832;45.490;4.912;2023-05-07T11:42:29;13.27;;;8.15;;
40122;SDS011;25832;45.490;4.912;2023-05-07T11:44:57;8.70;;;6.38;;
40122;SDS011;25832;45.490;4.912;2023-05-07T11:47:23;8.18;;;6.93;;
40122;SDS011;25832;45.490;4.912;2023-05-07T11:49:50;17.35;;;7.80;;
40122;SDS011;25832;45.490;4.912;2023-05-07T11:52:18;13.95;;;8.88;;
40122;SDS011;25832;45.490;4.912;2023-05-07T11:54:52;8.90;;;7.63;;
40122;SDS011;25832;45.490;4.912;2023-05-07T11:57:20;9.57;;;7.60;;
40122;SDS011;25832;45.490;4.912;2023-05-07T11:59:46;14.35;;;9.57;;
40122;SDS011;25832;45.490;4.912;2023-05-07T12:02:16;12.35;;;9.18;;
40122;SDS011;25832;45.490;4.912;2023-05-07T12:04:43;11.88;;;9.27;;
40122;SDS011;25832;45.490;4.912;2023-05-07T12:07:12;14.23;;;9.27;;
40122;SDS011;25832;45.490;4.912;2023-05-07T12:09:39;13.70;;;9.98;;
40122;SDS011;25832;45.490;4.912;2023-05-07T12:12:08;13.33;;;9.00;;
40122;SDS011;25832;45.490;4.912;2023-05-07T12:14:40;11.27;;;9.00;;
40122;SDS011;25832;45.490;4.912;2023-05-07T12:17:07;18.45;;;8.88;;
40122;SDS011;25832;45.490;4.912;2023-05-07T12:19:34;11.00;;;8.23;;
40122;SDS011;25832;45.490;4.912;2023-05-07T12:22:01;11.23;;;8.43;;
40122;SDS011;25832;45.490;4.912;2023-05-07T12:24:28;13.73;;;9.02;;
40122;SDS011;25832;45.490;4.912;2023-05-07T12:26:53;13.63;;;8.52;;
40122;SDS011;25832;45.490;4.912;2023-05-07T12:29:22;13.52;;;8.65;;
40122;SDS011;25832;45.490;4.912;2023-05-07T12:31:49;12.48;;;8.77;;
40122;SDS011;25832;45.490;4.912;2023-05-07T12:34:15;12.07;;;7.75;;
40122;SDS011;25832;45.490;4.912;2023-05-07T12:36:41;10.18;;;7.35;;
40122;SDS011;25832;45.490;4.912;2023-05-07T12:39:07;17.83;;;10.48;;
40122;SDS011;25832;45.490;4.912;2023-05-07T12:41:53;12.70;;;9.05;;
40122;SDS011;25832;45.490;4.912;2023-05-07T12:44:28;14.35;;;10.43;;
40122;SDS011;25832;45.490;4.912;2023-05-07T12:46:58;12.15;;;9.75;;
40122;SDS011;25832;45.490;4.912;2023-05-07T12:49:27;12.45;;;9.68;;
40122;SDS011;25832;45.490;4.912;2023-05-07T12:51:53;13.13;;;8.20;;
40122;SDS011;25832;45.490;4.912;2023-05-07T12:54:29;12.95;;;9.15;;
40122;SDS011;25832;45.490;4.912;2023-05-07T12:57:05;13.70;;;9.43;;
40122;SDS011;25832;45.490;4.912;2023-05-07T13:01:58;11.32;;;7.28;;
40122;SDS011;25832;45.490;4.912;2023-05-07T13:04:26;8.00;;;6.50;;
40122;SDS011;25832;45.490;4.912;2023-05-07T13:06:52;7.60;;;5.65;;
40122;SDS011;25832;45.490;4.912;2023-05-07T13:09:18;8.75;;;4.70;;
40122;SDS011;25832;45.490;4.912;2023-05-07T13:11:43;6.78;;;5.07;;
40122;SDS011;25832;45.490;4.912;2023-05-07T13:14:09;5.93;;;4.38;;
40122;SDS011;25832;45.490;4.912;2023-05-07T13:16:35;6.88;;;3.47;;
40122;SDS011;25832;45.490;4.912;2023-05-07T13:19:00;4.80;;;3.67;;
40122;SDS011;25832;45.490;4.912;2023-05-07T13:21:26;3.17;;;2.83;;
40122;SDS011;25832;45.490;4.912;2023-05-07T13:23:52;4.30;;;3.00;;
40122;SDS011;25832;45.490;4.912;2023-05-07T13:26:17;6.88;;;3.67;;
40122;SDS011;25832;45.490;4.912;2023-05-07T13:28:43;4.40;;;3.35;;
40122;SDS011;25832;45.490;4.912;2023-05-07T13:31:09;6.70;;;3.72;;
40122;SDS011;25832;45.490;4.912;2023-05-07T13:33:34;5.03;;;2.85;;
40122;SDS011;25832;45.490;4.912;2023-05-07T13:36:00;6.65;;;3.28;;
40122;SDS011;25832;45.490;4.912;2023-05-07T13:38:29;5.40;;;2.90;;
40122;SDS011;25832;45.490;4.912;2023-05-07T13:40:54;3.60;;;2.42;;
40122;SDS011;25832;45.490;4.912;2023-05-07T13:43:20;7.47;;;2.67;;
40122;SDS011;25832;45.490;4.912;2023-05-07T13:45:45;4.72;;;2.42;;
40122;SDS011;25832;45.490;4.912;2023-05-07T13:48:11;4.20;;;3.00;;
40122;SDS011;25832;45.490;4.912;2023-05-07T13:50:37;5.93;;;2.63;;
40122;SDS011;25832;45.490;4.912;2023-05-07T13:53:02;3.47;;;2.17;;
40122;SDS011;25832;45.490;4.912;2023-05-07T13:55:28;3.05;;;2.17;;
40122;SDS011;25832;45.490;4.912;2023-05-07T13:57:55;3.90;;;2.20;;
40122;SDS011;25832;45.490;4.912;2023-05-07T14:00:22;3.60;;;2.25;;
40122;SDS011;25832;45.490;4.912;2023-05-07T14:02:48;3.78;;;1.95;;
40122;SDS011;25832;45.490;4.912;2023-05-07T14:05:14;5.93;;;2.50;;
40122;SDS011;25832;45.490;4.912;2023-05-07T14:07:40;4.45;;;3.17;;
40122;SDS011;25832;45.490;4.912;2023-05-07T14:10:05;2.50;;;1.70;;
40122;SDS011;25832;45.490;4.912;2023-05-07T14:12:32;3.58;;;2.25;;
40122;SDS011;25832;45.490;4.912;2023-05-07T14:14:58;2.28;;;2.00;;
40122;SDS011;25832;45.490;4.912;2023-05-07T14:17:23;3.60;;;2.08;;
40122;SDS011;25832;45.490;4.912;2023-05-07T14:19:52;7.30;;;2.35;;
40122;SDS011;25832;45.490;4.912;2023-05-07T14:22:21;2.95;;;1.08;;
40122;SDS011;25832;45.490;4.912;2023-05-07T14:24:48;3.28;;;0.95;;
40122;SDS011;25832;45.490;4.912;2023-05-07T14:27:14;3.08;;;1.27;;
40122;SDS011;25832;45.490;4.912;2023-05-07T14:29:40;2.53;;;0.90;;
40122;SDS011;25832;45.490;4.912;2023-05-07T14:32:07;2.35;;;0.95;;
40122;SDS011;25832;45.490;4.912;2023-05-07T14:34:33;1.10;;;0.45;;
40122;SDS011;25832;45.490;4.912;2023-05-07T14:36:59;1.90;;;0.73;;
40122;SDS011;25832;45.490;4.912;2023-05-07T14:39:25;2.78;;;0.60;;
40122;SDS011;25832;45.490;4.912;2023-05-07T14:41:51;2.78;;;0.80;;
40122;SDS011;25832;45.490;4.912;2023-05-07T14:44:16;3.33;;;1.20;;
40122;SDS011;25832;45.490;4.912;2023-05-07T14:46:42;2.80;;;0.98;;
40122;SDS011;25832;45.490;4.912;2023-05-07T14:49:08;8.18;;;0.80;;
40122;SDS011;25832;45.490;4.912;2023-05-07T14:51:41;3.30;;;0.70;;
40122;SDS011;25832;45.490;4.912;2023-05-07T14:54:11;1.45;;;0.60;;
40122;SDS011;25832;45.490;4.912;2023-05-07T14:56:37;1.13;;;0.77;;
40122;SDS011;25832;45.490;4.912;2023-05-07T14:59:03;1.23;;;0.98;;
40122;SDS011;25832;45.490;4.912;2023-05-07T15:01:29;3.58;;;0.60;;
40122;SDS011;25832;45.490;4.912;2023-05-07T15:03:54;2.03;;;0.82;;